Time;durP1;ratioP1;P1;durP2;ratioP2;P2;SDS_P1;SDS_P2;PMS_P1;PMS_P2;Temp;Humidity;BMP_temperature;BMP_pressure;BME280_temperature;BME280_humidity;BME280_pressure;Samples;Min_cycle;Max_cycle;Signal;HPM_P1;HPM_P2
2022/04/04 05:03:38;;;;;;;24.77;15.25;;;-2.80;99.90;;;;;;6187069;22;20021;-80
2022/04/04 05:06:05;;;;;;;23.52;13.85;;;-2.80;99.90;;;;;;6173871;23;20001;-82
2022/04/04 05:08:31;;;;;;;23.80;14.10;;;-2.80;99.90;;;;;;6171685;23;20008;-79
2022/04/04 05:10:59;;;;;;;23.27;14.95;;;-2.90;99.90;;;;;;6198491;23;20020;-80
2022/04/04 05:13:26;;;;;;;22.48;14.00;;;-2.80;99.90;;;;;;6173509;23;20001;-80
2022/04/04 05:15:54;;;;;;;25.17;14.25;;;-2.90;99.90;;;;;;6196927;23;20013;-79
2022/04/04 05:18:21;;;;;;;25.00;14.48;;;-2.80;99.90;;;;;;6149314;23;20020;-80
2022/04/04 05:20:47;;;;;;;25.08;14.55;;;-2.80;99.90;;;;;;6175268;23;20009;-79
2022/04/04 05:23:16;;;;;;;26.35;14.38;;;-2.80;99.90;;;;;;6201621;23;20234;-79
2022/04/04 05:25:48;;;;;;;27.92;14.75;;;-2.80;99.90;;;;;;6151805;23;20016;-79
2022/04/04 05:28:52;;;;;;;22.08;13.32;;;-2.60;99.90;;;;;;6201810;23;20007;-78
2022/04/04 05:31:20;;;;;;;21.67;13.07;;;-2.60;99.90;;;;;;6156895;23;20012;-78
2022/04/04 05:33:46;;;;;;;23.40;13.93;;;-2.50;99.90;;;;;;6199424;23;20025;-78
2022/04/04 05:36:12;;;;;;;23.05;13.80;;;-2.40;99.90;;;;;;6174257;23;20005;-78
2022/04/04 05:39:33;;;;;;;22.02;13.15;;;-2.30;99.90;;;;;;6195426;23;20013;-79
2022/04/04 05:42:25;;;;;;;22.25;13.02;;;-2.30;99.90;;;;;;6175677;23;20016;-75
2022/04/04 05:44:51;;;;;;;23.23;13.30;;;-2.10;99.90;;;;;;6196343;23;20009;-79
2022/04/04 05:47:41;;;;;;;22.33;12.82;;;-2.00;99.90;;;;;;6201255;23;20016;-79
2022/04/04 05:50:14;;;;;;;20.15;12.30;;;-1.90;99.90;;;;;;6171008;23;20008;-79
2022/04/04 05:52:43;;;;;;;22.20;12.80;;;-1.70;99.90;;;;;;6198487;23;20001;-79
2022/04/04 05:55:15;;;;;;;21.38;12.82;;;-1.60;99.90;;;;;;6144876;23;20009;-79
2022/04/04 05:57:41;;;;;;;18.92;12.40;;;-1.40;99.90;;;;;;6169950;23;20024;-79
2022/04/04 06:00:10;;;;;;;22.15;11.60;;;-1.40;99.90;;;;;;6194331;23;20171;-80
2022/04/04 06:03:11;;;;;;;21.08;12.82;;;-1.40;99.90;;;;;;6207235;22;20013;-78
2022/04/04 06:05:38;;;;;;;23.13;13.23;;;-1.30;99.90;;;;;;6241178;23;20048;-80
2022/04/04 06:08:03;;;;;;;25.20;13.43;;;-1.20;99.90;;;;;;6242727;23;20001;-79
2022/04/04 06:10:52;;;;;;;21.30;12.85;;;-1.20;99.90;;;;;;6242694;23;20031;-78
2022/04/04 06:13:41;;;;;;;20.63;12.27;;;-1.10;99.90;;;;;;6216822;23;20005;-78
2022/04/04 06:17:14;;;;;;;21.08;12.30;;;-1.00;99.90;;;;;;6193051;23;20044;-77
2022/04/04 06:19:59;;;;;;;20.85;12.40;;;-1.00;99.90;;;;;;6218505;23;20033;-79
2022/04/04 06:22:44;;;;;;;21.38;12.10;;;-0.90;99.90;;;;;;6194582;23;20005;-78
2022/04/04 06:25:16;;;;;;;20.15;12.52;;;-0.80;99.90;;;;;;6242425;23;20020;-79
2022/04/04 06:27:46;;;;;;;22.83;11.77;;;-0.70;99.90;;;;;;6243186;23;20005;-79
2022/04/04 06:30:13;;;;;;;20.85;12.77;;;-0.60;99.90;;;;;;6193406;23;20013;-80
2022/04/04 06:32:43;;;;;;;20.58;11.77;;;-0.50;99.90;;;;;;6194874;23;20001;-79
2022/04/04 06:35:10;;;;;;;19.98;12.07;;;-0.50;99.90;;;;;;6194859;23;20310;-78
2022/04/04 06:41:46;;;;;;;17.10;10.73;;;-0.20;99.90;;;;;;6161703;23;20059;-79
2022/04/04 06:44:12;;;;;;;17.75;11.07;;;0.00;99.90;;;;;;6186350;23;20013;-82
2022/04/04 06:47:21;;;;;;;22.08;12.38;;;0.10;99.90;;;;;;6163695;23;20041;-79
2022/04/04 06:50:44;;;;;;;19.80;11.40;;;0.20;99.90;;;;;;6142182;23;20039;-80
2022/04/04 06:53:10;;;;;;;;;;;0.30;99.90;;;;;;6181180;23;20303;-81
2022/04/04 06:56:34;;;;;;;21.30;10.93;;;0.40;99.90;;;;;;6137776;23;19956;-81
2022/04/04 06:59:49;;;;;;;17.75;10.70;;;0.50;99.90;;;;;;6122878;23;20009;-84
2022/04/04 07:06:45;;;;;;;;;;;;;;;;;;;;;
2022/04/04 07:12:13;;;;;;;18.80;10.43;;;1.50;99.90;;;;;;6179577;23;19959;-79
2022/04/04 07:17:44;;;;;;;20.80;11.20;;;1.80;99.90;;;;;;6177970;23;20312;-82
2022/04/04 07:20:12;;;;;;;19.40;10.50;;;1.90;99.90;;;;;;6144074;23;20013;-79
2022/04/04 07:22:43;;;;;;;16.70;9.45;;;2.10;99.90;;;;;;6145228;23;20049;-80
2022/04/04 07:25:10;;;;;;;15.65;9.10;;;2.30;99.90;;;;;;6193258;23;20186;-80
2022/04/04 07:27:46;;;;;;;14.52;8.93;;;2.40;98.60;;;;;;6169198;23;20081;-81
2022/04/04 07:30:14;;;;;;;13.13;8.32;;;2.50;97.90;;;;;;6167214;23;20068;-80
2022/04/04 07:32:41;;;;;;;14.20;8.23;;;2.60;97.30;;;;;;6194046;23;20278;-79
2022/04/04 07:35:17;;;;;;;13.68;7.80;;;2.70;96.70;;;;;;6168565;23;20104;-80
2022/04/04 07:37:45;;;;;;;15.10;8.38;;;2.80;96.70;;;;;;6195276;23;20023;-79
2022/04/04 07:40:47;;;;;;;11.90;7.55;;;2.80;95.70;;;;;;6167209;23;20440;-80
2022/04/04 07:43:13;;;;;;;18.20;8.35;;;2.90;95.50;;;;;;6105375;23;20006;-81
2022/04/04 07:45:39;;;;;;;14.70;7.75;;;3.00;95.40;;;;;;6194252;23;20008;-78
2022/04/04 07:48:05;;;;;;;12.07;7.55;;;2.90;95.30;;;;;;6165201;23;20009;-80
2022/04/04 07:50:33;;;;;;;12.15;8.00;;;3.00;94.90;;;;;;6193383;23;20001;-83
2022/04/04 07:52:59;;;;;;;12.65;7.60;;;3.10;94.60;;;;;;6167752;23;20009;-80
2022/04/04 07:55:26;;;;;;;15.88;8.20;;;3.30;95.10;;;;;;6162188;23;20064;-82
2022/04/04 07:58:01;;;;;;;17.67;8.43;;;3.20;94.10;;;;;;6137919;23;20009;-80
2022/04/04 08:00:27;;;;;;;12.10;7.03;;;3.30;94.10;;;;;;6137023;23;20362;-79
2022/04/04 08:03:19;;;;;;;14.27;7.68;;;3.30;93.30;;;;;;6180596;23;20005;-81
2022/04/04 08:06:17;;;;;;;10.02;5.90;;;3.70;93.50;;;;;;6166990;23;20001;-79
2022/04/04 11:13:37;;;;;;;5.85;3.83;;;8.80;65.50;;;;;;6138526;23;20017;-79
2022/04/04 11:16:48;;;;;;;6.40;4.43;;;9.20;63.80;;;;;;6178447;23;20013;-79
2022/04/04 11:20:10;;;;;;;6.40;3.65;;;10.20;63.00;;;;;;6074391;23;20011;-79
2022/04/04 11:22:43;;;;;;;5.70;3.80;;;11.00;61.30;;;;;;6074809;23;20066;-78
2022/04/04 11:28:51;;;;;;;4.63;3.60;;;12.40;59.90;;;;;;6073655;23;20339;-80
2022/04/04 11:31:50;;;;;;;5.15;3.70;;;13.60;57.10;;;;;;6074016;23;20101;-78
2022/04/04 11:37:19;;;;;;;4.45;3.08;;;13.50;56.80;;;;;;6074188;23;20033;-78
2022/04/04 11:39:48;;;;;;;4.85;3.40;;;14.30;56.00;;;;;;6075034;23;20102;-79
2022/04/04 11:42:22;;;;;;;5.45;3.80;;;14.80;54.10;;;;;;6073585;23;20030;-78
2022/04/04 11:45:08;;;;;;;4.68;3.33;;;15.10;54.60;;;;;;6074085;23;20006;-80
2022/04/04 11:47:39;;;;;;;4.75;3.60;;;15.90;53.90;;;;;;6073725;23;20038;-78
2022/04/04 11:50:06;;;;;;;5.40;3.50;;;15.50;53.50;;;;;;6072874;23;20015;-79
2022/04/04 11:52:45;;;;;;;5.47;3.28;;;15.10;52.80;;;;;;6050849;23;20015;-80
2022/04/04 11:55:16;;;;;;;4.30;3.15;;;15.60;53.60;;;;;;6074643;23;20040;-79
2022/04/04 11:57:46;;;;;;;4.40;3.55;;;15.60;53.00;;;;;;6182800;23;20198;-78
2022/04/04 12:00:35;;;;;;;3.97;3.40;;;15.20;52.60;;;;;;6192481;23;20511;-80
2022/04/04 12:03:09;;;;;;;4.93;3.53;;;15.50;53.40;;;;;;6192936;23;20001;-81
2022/04/04 12:05:55;;;;;;;4.20;3.78;;;15.80;51.90;;;;;;6193116;23;20012;-79
2022/04/04 12:14:16;;;;;;;5.03;3.53;;;15.90;52.70;;;;;;6192262;23;20001;-78
2022/04/04 12:16:52;;;;;;;4.38;3.15;;;15.10;52.80;;;;;;6191458;22;20096;-79
2022/04/04 12:27:23;;;;;;;4.25;3.20;;;16.90;51.10;;;;;;6193942;23;20023;-78
2022/04/04 12:34:11;;;;;;;4.18;3.33;;;17.60;50.00;;;;;;6186933;23;20012;-77
2022/04/04 12:37:11;;;;;;;5.00;3.03;;;18.60;49.50;;;;;;6191246;23;20003;-79
2022/04/04 13:06:11;;;;;;;6.40;4.43;;;17.90;48.40;;;;;;6188548;23;20024;-77
2022/04/04 13:09:14;;;;;;;;;;;;;;;;;;;;;
2022/04/04 13:16:07;;;;;;;8.30;4.32;;;15.70;51.50;;;;;;6190110;23;20008;-79
2022/04/04 13:19:15;;;;;;;5.07;4.22;;;15.40;51.50;;;;;;6166319;23;20015;-78
2022/04/04 13:22:03;;;;;;;5.05;4.53;;;15.70;50.20;;;;;;6192118;23;20009;-80
2022/04/04 13:24:52;;;;;;;6.43;3.88;;;17.00;49.60;;;;;;6216503;23;20061;-79
2022/04/04 13:28:11;;;;;;;4.57;3.80;;;17.80;48.60;;;;;;6216864;23;20009;-80
2022/04/04 13:31:19;;;;;;;5.05;3.85;;;18.40;47.80;;;;;;6177470;23;20063;-79
2022/04/04 13:33:49;;;;;;;5.45;3.60;;;19.50;46.80;;;;;;6161143;23;20195;-79
2022/04/04 13:36:20;;;;;;;5.32;3.90;;;19.30;46.30;;;;;;6165917;23;20023;-79
2022/04/04 13:38:53;;;;;;;4.68;3.40;;;19.10;47.20;;;;;;6165651;23;20005;-79
2022/04/04 13:41:20;;;;;;;5.53;3.72;;;17.70;47.30;;;;;;6190883;23;20084;-80
2022/04/04 13:43:50;;;;;;;5.97;4.00;;;16.10;49.50;;;;;;6193665;23;20086;-80
2022/04/04 13:46:24;;;;;;;6.65;4.10;;;15.50;50.10;;;;;;6190569;22;20077;-79
2022/04/04 13:49:02;;;;;;;6.03;3.95;;;15.10;51.60;;;;;;6193714;23;20012;-78
2022/04/04 14:23:46;;;;;;;5.30;4.53;;;14.00;52.60;;;;;;6233467;22;20055;-79
2022/04/04 14:29:29;;;;;;;4.93;4.22;;;16.70;49.90;;;;;;6128317;23;20006;-79
2022/04/04 14:32:09;;;;;;;5.80;4.20;;;16.20;49.20;;;;;;6208454;23;20013;-79
2022/04/04 14:34:38;;;;;;;6.32;4.38;;;14.70;51.50;;;;;;6173439;23;20195;-78
2022/04/04 14:37:06;;;;;;;6.57;4.30;;;14.10;52.90;;;;;;6198420;23;20035;-78
2022/04/04 14:39:33;;;;;;;;;;;14.10;53.30;;;;;;6198845;23;20035;-79
2022/04/04 14:42:22;;;;;;;5.75;4.47;;;13.80;53.40;;;;;;6199061;23;19908;-79
2022/04/04 14:45:08;;;;;;;7.80;4.88;;;13.10;54.40;;;;;;6249084;23;20008;-77
2022/04/04 14:47:51;;;;;;;7.88;5.15;;;13.30;54.80;;;;;;6199243;23;20012;-78
2022/04/04 14:50:20;;;;;;;6.63;4.40;;;13.90;53.50;;;;;;6226195;23;20295;-77
2022/04/04 14:53:33;;;;;;;5.93;4.45;;;14.10;54.10;;;;;;6199422;23;20318;-77
2022/04/04 14:56:11;;;;;;;7.72;4.47;;;14.60;54.10;;;;;;6197650;23;20079;-78
2022/04/04 14:58:53;;;;;;;6.88;4.65;;;14.50;53.50;;;;;;6173459;23;20004;-77
2022/04/04 15:01:22;;;;;;;6.45;4.47;;;15.00;53.40;;;;;;6159751;23;20024;-78
2022/04/04 15:03:55;;;;;;;;;;;16.40;51.60;;;;;;6223873;23;19989;-78
2022/04/04 15:06:52;;;;;;;5.93;4.80;;;15.40;51.50;;;;;;6222904;23;19922;-78
2022/04/04 15:13:24;;;;;;;6.70;4.13;;;13.30;56.70;;;;;;6222518;23;20298;-77
2022/04/04 15:16:08;;;;;;;6.30;4.47;;;12.60;57.60;;;;;;6198064;23;20024;-79
2022/04/04 15:18:35;;;;;;;8.60;5.05;;;11.80;57.90;;;;;;6198861;23;20008;-79
2022/04/04 15:21:03;;;;;;;6.45;4.45;;;11.50;58.70;;;;;;6223854;23;20312;-77
2022/04/04 15:23:34;;;;;;;7.68;4.70;;;11.30;59.30;;;;;;6223166;23;20062;-78
2022/04/04 15:26:00;;;;;;;7.40;4.55;;;11.20;59.60;;;;;;6223628;23;20034;-78
2022/04/04 15:28:26;;;;;;;6.93;4.53;;;11.00;59.50;;;;;;6223458;23;20015;-79
2022/04/04 15:30:54;;;;;;;6.80;4.50;;;10.80;60.30;;;;;;6198686;23;20287;-78
2022/04/04 15:33:23;;;;;;;8.13;4.70;;;11.10;60.80;;;;;;6223668;23;20008;-79
2022/04/04 15:36:29;;;;;;;6.38;4.82;;;11.00;59.80;;;;;;6224450;23;20023;-78
2022/04/04 15:39:03;;;;;;;8.40;4.80;;;10.80;60.50;;;;;;6250162;23;20285;-79
2022/04/04 15:41:31;;;;;;;6.45;4.50;;;10.70;61.00;;;;;;6225214;23;20028;-79
2022/04/04 15:43:57;;;;;;;6.65;4.57;;;10.60;61.30;;;;;;6224470;23;20341;-79
2022/04/04 15:46:26;;;;;;;7.50;5.75;;;10.10;61.70;;;;;;6197784;23;20080;-78
2022/04/04 15:48:52;;;;;;;7.28;5.00;;;9.80;62.70;;;;;;6223391;23;20047;-78
2022/04/04 15:51:21;;;;;;;5.88;4.25;;;9.80;63.50;;;;;;6198116;23;20008;-79
2022/04/04 15:53:54;;;;;;;;;;;9.80;63.40;;;;;;6198214;23;19997;-78
2022/04/04 15:56:23;;;;;;;7.30;4.70;;;9.70;62.90;;;;;;6224776;23;20226;-78
2022/04/04 15:58:49;;;;;;;5.63;4.20;;;9.90;63.50;;;;;;6225293;23;20004;-78
2022/04/04 16:01:15;;;;;;;6.72;4.75;;;9.80;63.70;;;;;;6198323;23;20100;-78
2022/04/04 16:03:48;;;;;;;7.00;4.57;;;9.60;63.80;;;;;;6222662;23;20183;-78
2022/04/04 16:06:16;;;;;;;7.28;5.10;;;9.60;63.70;;;;;;6222050;23;20009;-78
2022/04/04 16:08:43;;;;;;;6.80;4.68;;;9.20;63.80;;;;;;6197262;23;20008;-79
2022/04/04 16:11:14;;;;;;;7.38;4.55;;;9.10;64.60;;;;;;6225607;23;20000;-77
2022/04/04 16:13:46;;;;;;;8.25;4.70;;;9.00;65.00;;;;;;6222662;23;20203;-77
2022/04/04 16:16:15;;;;;;;6.50;4.55;;;9.10;65.10;;;;;;6225414;23;20013;-78
2022/04/04 16:18:42;;;;;;;8.70;4.57;;;9.20;65.10;;;;;;6223688;23;20015;-78
2022/04/04 16:21:09;;;;;;;7.00;4.97;;;9.10;65.50;;;;;;6225384;23;20004;-78
2022/04/04 16:23:36;;;;;;;7.22;4.70;;;9.20;65.50;;;;;;6224501;23;20044;-78
2022/04/04 16:26:02;;;;;;;8.60;4.53;;;9.20;65.70;;;;;;6198847;23;20009;-78
2022/04/04 16:28:31;;;;;;;6.75;4.97;;;9.30;65.80;;;;;;6224241;23;20012;-77
2022/04/04 16:31:04;;;;;;;5.57;4.00;;;9.20;65.50;;;;;;6225354;23;20078;-78
2022/04/04 16:33:33;;;;;;;7.70;5.10;;;9.10;66.00;;;;;;6225634;23;20046;-79
2022/04/04 16:35:59;;;;;;;7.20;4.25;;;9.00;66.00;;;;;;6199422;23;20004;-80
2022/04/04 16:38:28;;;;;;;6.68;4.68;;;8.90;66.60;;;;;;6223568;23;20031;-79
2022/04/04 16:40:53;;;;;;;7.38;4.72;;;8.70;66.50;;;;;;6223848;23;20024;-79
2022/04/04 16:43:19;;;;;;;7.13;4.35;;;8.70;67.30;;;;;;6225316;23;20064;-78
2022/04/04 16:45:54;;;;;;;6.72;4.75;;;8.70;66.70;;;;;;6223756;23;20257;-78
2022/04/04 16:48:20;;;;;;;6.60;4.45;;;8.70;67.30;;;;;;6223761;23;20011;-79
2022/04/04 16:51:24;;;;;;;7.97;5.00;;;8.70;67.10;;;;;;6225207;23;20020;-78
2022/04/04 16:53:50;;;;;;;8.20;4.72;;;8.60;67.20;;;;;;6194450;23;20195;-77
2022/04/04 16:56:18;;;;;;;6.43;4.70;;;8.60;67.60;;;;;;6192552;23;20040;-78
2022/04/04 16:58:44;;;;;;;6.47;4.78;;;8.60;67.90;;;;;;6169358;23;20016;-78
2022/04/04 17:01:10;;;;;;;5.90;4.20;;;8.50;68.20;;;;;;6167205;23;20398;-81
2022/04/04 17:03:36;;;;;;;6.95;4.68;;;8.60;68.70;;;;;;6167414;23;20004;-80
2022/04/04 17:06:01;;;;;;;7.35;4.78;;;8.60;68.70;;;;;;6194961;23;20012;-79
2022/04/04 17:08:30;;;;;;;7.60;4.72;;;8.60;68.50;;;;;;6171418;23;20012;-79
2022/04/04 17:10:57;;;;;;;7.43;4.63;;;8.60;69.40;;;;;;6197220;23;20028;-79
2022/04/04 17:13:23;;;;;;;8.27;4.82;;;8.60;69.20;;;;;;6170166;23;20005;-76
2022/04/04 17:15:54;;;;;;;6.07;4.32;;;8.60;69.60;;;;;;6174323;23;20017;-77
2022/04/04 17:18:21;;;;;;;7.88;4.70;;;8.60;69.50;;;;;;6176110;23;20016;-79
2022/04/04 17:20:55;;;;;;;6.78;4.75;;;8.60;69.20;;;;;;6175176;23;20017;-79
2022/04/04 17:23:52;;;;;;;9.68;4.82;;;8.60;69.70;;;;;;6200640;23;20358;-78
2022/04/04 17:26:19;;;;;;;8.55;5.22;;;8.70;69.20;;;;;;6176595;23;20358;-80
2022/04/04 17:28:55;;;;;;;6.70;4.75;;;8.60;69.40;;;;;;6179535;23;20012;-80
2022/04/04 17:31:21;;;;;;;9.38;5.35;;;8.60;69.40;;;;;;6176051;23;20321;-77
2022/04/04 17:33:50;;;;;;;10.25;5.60;;;8.50;68.90;;;;;;6203288;23;20265;-77
2022/04/04 17:36:57;;;;;;;7.25;5.18;;;8.50;69.30;;;;;;6226837;23;20024;-78
2022/04/04 17:39:23;;;;;;;9.93;5.13;;;8.50;68.90;;;;;;6228049;23;20035;-79
2022/04/04 17:41:49;;;;;;;7.20;4.72;;;8.40;69.20;;;;;;6229751;23;20016;-78
2022/04/04 17:44:16;;;;;;;8.75;5.10;;;8.40;69.20;;;;;;6213950;23;20141;-78
2022/04/04 17:46:43;;;;;;;7.97;5.22;;;8.30;69.20;;;;;;6198800;23;20028;-78
2022/04/04 17:49:27;;;;;;;7.43;4.95;;;8.30;69.30;;;;;;6174442;23;20040;-79
2022/04/04 17:51:56;;;;;;;9.00;5.35;;;8.20;69.00;;;;;;6170120;23;20012;-78
2022/04/04 17:54:27;;;;;;;8.18;4.55;;;8.20;69.40;;;;;;6127669;23;20068;-79
2022/04/04 17:56:53;;;;;;;8.10;5.00;;;8.20;69.50;;;;;;6181734;23;20005;-76
2022/04/04 17:59:22;;;;;;;8.50;4.53;;;8.10;69.60;;;;;;6212652;23;20031;-78
2022/04/04 18:01:52;;;;;;;;;;;8.10;69.80;;;;;;6186784;23;20017;-79
2022/04/04 18:04:19;;;;;;;7.50;4.88;;;8.00;70.20;;;;;;6181439;23;19900;-80
2022/04/04 18:06:46;;;;;;;9.40;4.65;;;8.00;69.70;;;;;;6197715;23;19997;-79
2022/04/04 18:09:13;;;;;;;7.68;4.68;;;8.00;70.10;;;;;;6199624;23;20009;-79
2022/04/04 18:11:40;;;;;;;7.75;4.70;;;8.00;69.60;;;;;;6198348;23;20060;-77
2022/04/04 18:14:34;;;;;;;7.53;4.93;;;8.00;70.00;;;;;;6174164;23;19993;-77
2022/04/04 18:17:03;;;;;;;7.07;5.05;;;8.00;69.90;;;;;;6228222;23;20013;-77
2022/04/04 18:19:33;;;;;;;7.75;4.75;;;7.90;69.80;;;;;;6229130;23;20028;-79
2022/04/04 18:22:22;;;;;;;6.80;4.75;;;7.90;70.20;;;;;;6228807;23;20019;-79
2022/04/04 18:25:01;;;;;;;8.15;5.00;;;7.90;70.40;;;;;;6166385;23;20027;-77
2022/04/04 18:27:40;;;;;;;6.47;4.55;;;7.90;69.60;;;;;;6167045;23;20006;-78
2022/04/04 18:30:35;;;;;;;7.25;4.68;;;7.90;70.00;;;;;;6167865;23;20381;-80
2022/04/04 18:33:03;;;;;;;7.18;4.70;;;7.80;70.10;;;;;;6168502;23;20005;-78
2022/04/04 18:35:33;;;;;;;6.13;4.40;;;7.80;70.00;;;;;;6166354;23;20044;-79
2022/04/04 18:38:00;;;;;;;6.93;4.32;;;7.70;70.10;;;;;;6169319;23;20017;-79
2022/04/04 18:40:58;;;;;;;7.83;4.80;;;7.70;70.40;;;;;;6169613;23;20013;-77
2022/04/04 18:43:58;;;;;;;8.10;4.75;;;7.70;71.10;;;;;;6170821;23;20416;-79
2022/04/04 18:46:57;;;;;;;7.30;4.55;;;7.70;71.60;;;;;;6169568;23;20250;-78
2022/04/04 18:49:32;;;;;;;7.22;4.88;;;7.70;71.90;;;;;;6140837;23;20009;-80
2022/04/04 18:52:03;;;;;;;8.05;4.93;;;7.70;72.10;;;;;;6144696;23;20005;-78
2022/04/04 18:54:31;;;;;;;7.80;5.05;;;7.60;72.90;;;;;;6166240;23;20065;-79
2022/04/04 18:56:57;;;;;;;8.45;4.93;;;7.50;74.80;;;;;;6144079;23;20006;-78
2022/04/04 18:59:25;;;;;;;7.63;5.30;;;7.40;75.00;;;;;;6142089;23;20005;-80
2022/04/04 19:01:51;;;;;;;6.47;4.78;;;7.30;75.10;;;;;;6183871;23;20044;-79
2022/04/04 19:04:18;;;;;;;8.40;5.28;;;7.30;75.10;;;;;;6199815;23;20005;-77
2022/04/04 19:06:45;;;;;;;7.95;5.18;;;7.20;74.40;;;;;;6198462;23;20005;-79
2022/04/04 19:09:11;;;;;;;9.88;4.95;;;7.30;74.50;;;;;;6200480;23;20008;-79
2022/04/04 19:11:38;;;;;;;9.45;5.28;;;7.20;74.50;;;;;;6198606;23;20005;-78
2022/04/04 19:14:04;;;;;;;8.73;5.07;;;7.20;74.40;;;;;;6200521;23;20000;-79
2022/04/04 19:16:35;;;;;;;8.07;5.43;;;7.40;74.20;;;;;;6204437;23;20012;-79
2022/04/04 19:19:03;;;;;;;9.50;5.22;;;7.30;73.40;;;;;;6229098;23;20064;-79
2022/04/04 19:21:31;;;;;;;6.93;4.93;;;7.40;72.90;;;;;;6228744;23;20242;-80
2022/04/04 19:23:57;;;;;;;8.35;4.97;;;7.40;73.20;;;;;;6228761;23;20018;-80
2022/04/04 19:26:24;;;;;;;8.85;4.82;;;7.30;72.80;;;;;;6231310;23;20270;-78
2022/04/04 19:28:50;;;;;;;7.20;5.25;;;7.30;73.30;;;;;;6223420;23;20031;-78
2022/04/04 19:31:16;;;;;;;7.93;5.32;;;7.40;73.50;;;;;;6224823;22;20016;-79
2022/04/04 19:33:45;;;;;;;7.93;5.20;;;7.40;73.10;;;;;;6229429;23;19988;-80
2022/04/04 19:36:12;;;;;;;7.10;5.55;;;7.40;73.20;;;;;;6227459;23;20286;-78
2022/04/04 19:38:38;;;;;;;7.38;5.10;;;7.40;72.90;;;;;;6225023;23;20008;-79
2022/04/04 19:41:06;;;;;;;7.40;4.93;;;7.40;73.00;;;;;;6206351;23;20058;-78
2022/04/04 19:43:33;;;;;;;7.43;5.20;;;7.40;73.40;;;;;;6225824;23;20286;-79
2022/04/04 19:45:59;;;;;;;8.02;5.00;;;7.40;73.60;;;;;;6200111;23;20013;-79
2022/04/04 19:48:27;;;;;;;7.30;5.25;;;7.30;74.40;;;;;;6227136;23;20072;-80
2022/04/04 19:50:53;;;;;;;7.68;5.35;;;7.30;74.50;;;;;;6203169;23;20333;-80
2022/04/04 19:53:20;;;;;;;8.43;5.78;;;7.30;74.80;;;;;;6233710;23;20008;-76
2022/04/04 19:55:48;;;;;;;8.18;5.82;;;7.20;75.90;;;;;;6202633;23;20278;-79
2022/04/04 19:58:14;;;;;;;9.52;5.75;;;7.20;76.90;;;;;;6227107;23;20348;-79
2022/04/04 20:00:41;;;;;;;8.75;5.18;;;7.10;77.20;;;;;;6203424;22;20013;-79
2022/04/04 20:03:08;;;;;;;9.95;6.28;;;7.00;77.60;;;;;;6230049;23;19989;-78
2022/04/04 20:05:35;;;;;;;8.98;6.05;;;7.00;77.70;;;;;;6232924;23;20004;-79
2022/04/04 20:08:01;;;;;;;10.57;5.82;;;7.00;77.50;;;;;;6233767;23;20001;-79
2022/04/04 20:10:27;;;;;;;8.85;5.88;;;7.00;77.70;;;;;;6227893;23;20012;-80
2022/04/04 20:17:14;;;;;;;8.65;5.78;;;7.00;77.60;;;;;;6053333;23;20023;-75
2022/04/04 20:19:41;;;;;;;8.35;5.70;;;6.90;77.70;;;;;;6029708;23;20030;-78
2022/04/04 20:22:10;;;;;;;8.90;5.95;;;6.90;77.50;;;;;;6050622;23;20308;-79
2022/04/04 20:24:37;;;;;;;9.35;6.13;;;7.00;77.20;;;;;;6028923;23;20420;-77
2022/04/04 20:27:03;;;;;;;8.07;5.57;;;7.10;76.90;;;;;;6050365;23;20003;-77
2022/04/04 20:29:30;;;;;;;7.60;5.68;;;7.10;77.00;;;;;;6024572;23;20015;-80
2022/04/04 20:32:11;;;;;;;8.90;5.82;;;7.10;77.00;;;;;;6045757;23;20220;-80
2022/04/04 20:34:37;;;;;;;8.32;5.60;;;7.00;77.40;;;;;;6048353;23;20293;-78
2022/04/04 20:37:03;;;;;;;8.70;5.85;;;7.10;77.60;;;;;;6050880;23;20011;-80
2022/04/04 20:39:29;;;;;;;8.57;6.40;;;7.00;78.00;;;;;;6053266;23;20297;-78
2022/04/04 20:42:22;;;;;;;10.35;6.05;;;7.00;78.30;;;;;;6048913;23;20194;-78
2022/04/04 20:45:15;;;;;;;10.13;5.90;;;7.00;79.00;;;;;;6020949;23;20011;-78
2022/04/04 20:47:44;;;;;;;8.25;5.88;;;6.90;80.20;;;;;;5998245;23;20063;-78
2022/04/04 20:50:11;;;;;;;9.13;6.15;;;6.90;80.80;;;;;;6028127;23;20015;-77
2022/04/04 20:52:49;;;;;;;9.27;6.43;;;6.80;81.10;;;;;;6125396;23;20140;-79
2022/04/04 20:55:15;;;;;;;8.55;6.05;;;6.80;80.90;;;;;;6227104;23;20000;-79
2022/04/04 20:57:41;;;;;;;8.57;6.07;;;6.80;80.90;;;;;;6224060;23;20024;-78
2022/04/04 21:00:12;;;;;;;9.60;6.40;;;6.80;80.80;;;;;;6225747;22;20024;-78
2022/04/04 21:02:40;;;;;;;11.02;7.32;;;6.80;81.10;;;;;;6225220;23;20064;-78
2022/04/04 21:05:07;;;;;;;9.52;6.43;;;6.80;81.60;;;;;;6226170;23;20001;-78
2022/04/04 21:07:33;;;;;;;11.05;6.28;;;6.70;81.70;;;;;;6227345;23;20028;-78
2022/04/04 21:09:59;;;;;;;9.35;6.32;;;6.70;82.10;;;;;;6231328;23;20008;-77
2022/04/04 21:12:29;;;;;;;8.13;6.45;;;6.70;81.90;;;;;;6228092;23;20004;-78
2022/04/04 21:15:05;;;;;;;8.52;6.50;;;6.70;81.60;;;;;;6201243;23;20287;-76
2022/04/04 21:17:32;;;;;;;8.98;6.53;;;6.70;81.30;;;;;;6181770;23;20013;-79
2022/04/04 21:20:00;;;;;;;9.73;6.22;;;6.80;81.10;;;;;;6230341;23;20064;-78
2022/04/04 21:22:27;;;;;;;9.07;6.93;;;6.70;81.20;;;;;;6227984;23;20008;-77
2022/04/04 21:24:53;;;;;;;10.80;7.05;;;6.80;81.40;;;;;;6200782;23;20005;-78
2022/04/04 21:27:21;;;;;;;9.35;6.40;;;6.70;81.30;;;;;;6200278;23;20299;-78
2022/04/04 21:30:06;;;;;;;8.60;5.93;;;6.80;81.00;;;;;;6225996;23;20009;-78
2022/04/04 21:32:32;;;;;;;8.18;6.47;;;6.80;81.10;;;;;;6226529;23;20013;-79
2022/04/04 21:35:00;;;;;;;9.77;6.47;;;6.80;80.60;;;;;;6202423;23;20071;-78
2022/04/04 21:37:27;;;;;;;9.43;6.32;;;6.80;80.60;;;;;;6227959;23;20004;-79
2022/04/04 21:39:53;;;;;;;9.13;6.53;;;6.80;80.70;;;;;;6203674;23;20197;-78
2022/04/04 21:42:18;;;;;;;9.27;6.30;;;6.90;80.70;;;;;;6232033;23;19997;-77
2022/04/04 21:44:44;;;;;;;9.05;6.05;;;6.90;80.60;;;;;;6227407;23;20009;-81
2022/04/04 21:47:14;;;;;;;9.43;6.05;;;6.90;80.70;;;;;;6223202;22;20028;-77
2022/04/04 21:49:43;;;;;;;10.40;6.88;;;6.80;81.00;;;;;;6228743;23;20036;-78
2022/04/04 21:56:53;;;;;;;8.85;6.40;;;6.90;80.70;;;;;;6231138;23;20085;-79
2022/04/04 22:07:04;;;;;;;10.48;6.38;;;6.80;81.50;;;;;;6232563;23;20483;-80
2022/04/04 22:16:11;;;;;;;;;;;6.70;82.10;;;;;;6204083;23;20072;-79
2022/04/04 22:30:10;;;;;;;9.75;6.63;;;6.60;84.50;;;;;;6141559;23;20323;-79
2022/04/04 22:33:45;;;;;;;10.77;6.97;;;6.50;85.80;;;;;;6166615;23;19998;-78
2022/04/04 22:36:38;;;;;;;10.88;7.05;;;6.50;86.40;;;;;;6162566;23;20024;-79
2022/04/04 22:46:48;;;;;;;10.43;6.07;;;6.40;86.20;;;;;;6211480;23;20043;-79
2022/04/04 22:50:17;;;;;;;10.05;6.65;;;6.40;86.10;;;;;;6198731;23;20052;-79
2022/04/04 22:53:21;;;;;;;8.63;5.75;;;6.40;86.30;;;;;;6168809;23;20005;-79
2022/04/04 22:59:45;;;;;;;10.57;6.50;;;6.30;86.60;;;;;;6078737;23;20054;-82
2022/04/04 23:03:03;;;;;;;8.90;6.45;;;6.30;86.80;;;;;;6040794;23;20021;-77
2022/04/04 23:05:56;;;;;;;;;;;;;;;;;;;;;
2022/04/04 23:12:10;;;;;;;11.88;6.43;;;6.20;87.50;;;;;;6082628;23;20029;-78
2022/04/04 23:14:39;;;;;;;8.50;6.10;;;6.20;87.30;;;;;;6056881;23;20010;-78
2022/04/04 23:24:24;;;;;;;9.38;6.35;;;6.20;87.80;;;;;;6048497;23;20037;-79
2022/04/04 23:27:20;;;;;;;10.95;6.20;;;6.20;87.90;;;;;;6024904;23;20289;-78
2022/04/04 23:30:21;;;;;;;10.50;6.10;;;6.10;87.70;;;;;;6026086;23;20023;-79
2022/04/04 23:32:56;;;;;;;8.48;5.82;;;6.10;87.90;;;;;;6026936;23;20007;-79
2022/04/04 23:35:22;;;;;;;10.50;6.45;;;6.20;88.00;;;;;;6036226;23;20014;-82
2022/04/04 23:38:30;;;;;;;9.75;6.25;;;6.10;88.00;;;;;;6131012;23;20002;-80
2022/04/04 23:41:28;;;;;;;8.73;6.20;;;6.10;88.20;;;;;;6103019;23;20007;-81
2022/04/04 23:44:13;;;;;;;9.40;6.18;;;6.10;88.10;;;;;;6100184;23;20026;-78
2022/04/04 23:47:29;;;;;;;8.50;6.10;;;6.10;88.10;;;;;;6079124;23;20062;-79
2022/04/04 23:49:56;;;;;;;8.10;5.55;;;6.10;88.20;;;;;;6052127;23;20007;-78
2022/04/04 23:52:25;;;;;;;;;;;6.10;88.10;;;;;;6078009;23;19994;-78
2022/04/04 23:54:57;;;;;;;8.13;5.55;;;6.10;88.00;;;;;;6112541;23;20250;-80
2022/04/04 23:57:23;;;;;;;9.48;5.70;;;6.10;87.80;;;;;;6135516;23;20065;-78
2022/04/04 23:59:49;;;;;;;8.88;6.18;;;6.10;87.80;;;;;;6136488;23;20006;-78
